createdAt,value
2018-07-16T00:01:30.392Z,94892.38
2018-07-16T00:03:59.382Z,94883.09
2018-07-16T00:06:28.780Z,94894.93
2018-07-16T00:08:57.788Z,94895.32
2018-07-16T00:11:26.570Z,94900.58
2018-07-16T00:13:55.789Z,94900.69
2018-07-16T00:16:24.666Z,94901.30
2018-07-16T00:18:53.839Z,94894.56
2018-07-16T00:21:23.316Z,94896.86
2018-07-16T00:23:52.381Z,94904.09
2018-07-16T00:26:21.490Z,94903.06
2018-07-16T00:28:50.980Z,94917.53
2018-07-16T00:31:20.008Z,94911.35
2018-07-16T00:33:48.755Z,94904.63
2018-07-16T00:36:18.231Z,94908.64
2018-07-16T00:38:47.306Z,94905.03
2018-07-16T00:41:16.344Z,94908.22
2018-07-16T00:43:45.222Z,94905.20
2018-07-16T00:46:14.229Z,94903.77
2018-07-16T00:48:43.323Z,94906.49
2018-07-16T00:51:12.447Z,94910.80
2018-07-16T00:53:41.295Z,94911.03
2018-07-16T00:56:10.484Z,94918.95
2018-07-16T00:58:39.355Z,94917.45
2018-07-16T01:01:08.681Z,94914.86
2018-07-16T01:03:37.900Z,94918.07
2018-07-16T01:06:07.309Z,94921.52
2018-07-16T01:08:37.026Z,94929.12
2018-07-16T01:11:05.959Z,94929.66
2018-07-16T01:13:35.057Z,94921.91
2018-07-16T01:16:03.941Z,94915.26
2018-07-16T01:18:32.887Z,94914.88
2018-07-16T01:21:02.112Z,94914.48
2018-07-16T01:23:30.875Z,94913.94
2018-07-16T01:25:59.736Z,94925.66
2018-07-16T01:28:28.935Z,94917.67
2018-07-16T01:30:57.762Z,94926.92
2018-07-16T01:33:26.761Z,94933.95
2018-07-16T01:35:56.025Z,94926.38
2018-07-16T01:38:24.819Z,94932.77
2018-07-16T01:40:53.610Z,94924.80
2018-07-16T01:43:22.767Z,94935.97
2018-07-16T01:45:51.620Z,94930.71
2018-07-16T01:48:20.591Z,94924.86
2018-07-16T01:50:49.878Z,94925.08
2018-07-16T01:53:19.035Z,94926.34
2018-07-16T01:55:47.987Z,94927.36
2018-07-16T01:58:17.197Z,94923.22
2018-07-16T02:00:56.752Z,94921.79
2018-07-16T02:03:29.958Z,94933.59
2018-07-16T02:05:58.931Z,94935.81
2018-07-16T02:08:28.223Z,94935.30
2018-07-16T02:10:57.654Z,94938.91
2018-07-16T02:13:26.419Z,94934.59
2018-07-16T02:15:55.202Z,94929.74
2018-07-16T02:18:24.373Z,94932.41
2018-07-16T02:20:53.710Z,94923.32
2018-07-16T02:23:22.608Z,94933.80
2018-07-16T02:25:51.909Z,94939.20
2018-07-16T02:28:21.002Z,94938.98
2018-07-16T02:30:49.944Z,94946.21
2018-07-16T02:33:19.427Z,94953.96
2018-07-16T02:35:48.199Z,94948.53
2018-07-16T02:38:17.011Z,94945.22
2018-07-16T02:40:46.350Z,94947.94
2018-07-16T02:43:15.334Z,94942.43
2018-07-16T02:45:44.219Z,94941.75
2018-07-16T02:48:13.218Z,94940.09
2018-07-16T02:50:42.277Z,94937.80
2018-07-16T02:53:11.439Z,94946.42
2018-07-16T02:55:40.674Z,94935.31
2018-07-16T02:58:09.608Z,94941.70
2018-07-16T03:00:38.420Z,94939.38
2018-07-16T03:03:07.844Z,94943.51
2018-07-16T03:05:37.137Z,94934.36
2018-07-16T03:08:06.156Z,94921.74
2018-07-16T03:10:35.423Z,94938.37
2018-07-16T03:13:04.582Z,94943.30
2018-07-16T03:15:33.574Z,94937.63
2018-07-16T03:18:03.385Z,94929.86
2018-07-16T03:20:32.348Z,94935.52
2018-07-16T03:23:01.458Z,94933.42
2018-07-16T03:25:30.377Z,94930.94
2018-07-16T03:27:59.388Z,94927.32
2018-07-16T03:30:28.500Z,94937.12
2018-07-16T03:32:57.521Z,94933.48
2018-07-16T03:35:26.777Z,94941.11
2018-07-16T03:37:55.853Z,94943.88
2018-07-16T03:40:25.334Z,94944.44
2018-07-16T03:42:54.344Z,94946.42
2018-07-16T03:45:23.287Z,94947.63
2018-07-16T03:47:53.044Z,94945.59
2018-07-16T03:50:22.164Z,94938.67
2018-07-16T03:52:51.102Z,94935.85
2018-07-16T03:55:20.109Z,94936.47
2018-07-16T03:57:49.046Z,94944.27
2018-07-16T04:00:17.774Z,94941.13
2018-07-16T04:02:47.263Z,94940.28
2018-07-16T04:05:16.066Z,94938.78
2018-07-16T04:07:45.077Z,94945.42
2018-07-16T04:10:13.775Z,94945.05
2018-07-16T04:12:42.531Z,94941.58
2018-07-16T04:15:11.501Z,94942.70
2018-07-16T04:17:40.654Z,94938.84
2018-07-16T04:20:09.932Z,94931.16
2018-07-16T04:22:38.928Z,94930.27
2018-07-16T04:25:08.046Z,94929.80
2018-07-16T04:27:37.230Z,94919.40
2018-07-16T04:30:06.335Z,94920.50
2018-07-16T04:32:35.565Z,94914.88
2018-07-16T04:35:04.636Z,94917.48
2018-07-16T04:37:33.606Z,94918.48
2018-07-16T04:40:02.639Z,94917.86
2018-07-16T04:42:31.425Z,94915.00
2018-07-16T04:45:00.621Z,94921.86
2018-07-16T04:47:29.913Z,94922.84
2018-07-16T04:49:58.662Z,94918.96
2018-07-16T04:52:27.415Z,94919.06
2018-07-16T04:54:57.013Z,94920.14
2018-07-16T04:57:26.219Z,94920.03
2018-07-16T04:59:55.127Z,94921.77
2018-07-16T05:02:24.483Z,94914.61
2018-07-16T05:04:53.516Z,94916.79
2018-07-16T05:07:22.364Z,94912.58
2018-07-16T05:09:51.585Z,94910.33
2018-07-16T05:12:20.467Z,94908.08
2018-07-16T05:14:49.319Z,94914.48
2018-07-16T05:17:18.259Z,94909.61
2018-07-16T05:19:47.269Z,94907.89
2018-07-16T05:22:17.187Z,94906.79
2018-07-16T05:24:46.589Z,94897.39
2018-07-16T05:27:15.547Z,94897.87
2018-07-16T05:29:44.326Z,94900.05
2018-07-16T05:32:13.454Z,94902.58
2018-07-16T05:34:42.602Z,94907.83
2018-07-16T05:37:11.528Z,94910.95
2018-07-16T05:39:40.499Z,94905.03
2018-07-16T05:42:09.617Z,94904.32
2018-07-16T05:44:38.559Z,94910.80
2018-07-16T05:49:41.586Z,94909.55
2018-07-16T05:52:13.859Z,94914.02
2018-07-16T05:54:42.606Z,94917.31
2018-07-16T05:57:11.722Z,94911.02
2018-07-16T05:59:41.014Z,94916.13
2018-07-16T06:02:10.237Z,94916.54
2018-07-16T06:04:39.066Z,94909.97
2018-07-16T06:07:08.592Z,94911.20
2018-07-16T06:09:37.618Z,94904.13
2018-07-16T06:12:06.773Z,94904.55
2018-07-16T06:14:36.307Z,94906.65
2018-07-16T06:17:05.427Z,94912.31
2018-07-16T06:19:34.329Z,94901.77
2018-07-16T06:22:03.644Z,94900.14
2018-07-16T06:24:32.847Z,94904.89
2018-07-16T06:27:01.583Z,94911.16
2018-07-16T06:29:31.173Z,94902.20
2018-07-16T06:32:00.439Z,94901.30
2018-07-16T06:34:29.516Z,94903.98
2018-07-16T06:36:58.766Z,94896.76
2018-07-16T06:39:27.882Z,94895.47
2018-07-16T06:41:56.940Z,94885.53
2018-07-16T06:44:26.848Z,94887.25
2018-07-16T06:46:56.039Z,94884.16
2018-07-16T06:49:24.985Z,94882.59
2018-07-16T06:51:54.148Z,94885.64
2018-07-16T06:54:23.162Z,94873.36
2018-07-16T06:56:52.104Z,94886.38
2018-07-16T06:59:20.891Z,94882.11
2018-07-16T07:01:50.185Z,94877.25
2018-07-16T07:04:19.332Z,94879.28
2018-07-16T07:06:48.541Z,94872.89
2018-07-16T07:09:18.031Z,94881.34
2018-07-16T07:11:46.943Z,94869.16
2018-07-16T07:14:15.846Z,94874.70
2018-07-16T07:16:44.875Z,94866.28
2018-07-16T07:19:13.803Z,94862.24
2018-07-16T07:21:42.822Z,94867.20
2018-07-16T07:24:11.813Z,94868.25
2018-07-16T07:26:40.584Z,94869.08
2018-07-16T07:29:09.482Z,94863.96
2018-07-16T07:31:38.335Z,94865.17
2018-07-16T07:34:07.546Z,94872.71
2018-07-16T07:36:37.017Z,94877.75
2018-07-16T07:39:07.222Z,94872.13
2018-07-16T07:41:36.474Z,94873.01
2018-07-16T07:44:05.307Z,94878.34
2018-07-16T07:46:34.268Z,94868.20
2018-07-16T07:49:03.285Z,94877.73
2018-07-16T07:51:32.362Z,94872.37
2018-07-16T07:54:01.456Z,94873.25
2018-07-16T07:56:30.402Z,94877.38
2018-07-16T07:58:59.221Z,94881.89
2018-07-16T08:01:28.441Z,94868.67
2018-07-16T08:03:57.540Z,94874.73
2018-07-16T08:06:26.640Z,94876.83
2018-07-16T08:08:58.571Z,94874.22
2018-07-16T08:11:27.733Z,94878.03
2018-07-16T08:13:56.448Z,94876.95
2018-07-16T08:16:25.934Z,94866.62
2018-07-16T08:18:54.889Z,94877.34
2018-07-16T08:21:23.747Z,94875.67
2018-07-16T08:23:53.055Z,94879.72
2018-07-16T08:26:22.362Z,94870.59
2018-07-16T08:28:51.458Z,94863.25
2018-07-16T08:31:20.794Z,94873.60
2018-07-16T08:33:49.678Z,94864.80
2018-07-16T08:36:18.582Z,94866.58
2018-07-16T08:38:47.557Z,94872.16
2018-07-16T08:41:16.681Z,94868.39
2018-07-16T08:43:45.526Z,94867.27
2018-07-16T08:46:14.727Z,94863.48
2018-07-16T08:48:43.692Z,94865.60
2018-07-16T08:51:12.621Z,94865.80
2018-07-16T08:53:41.373Z,94867.36
2018-07-16T08:56:10.570Z,94872.83
2018-07-16T08:58:39.747Z,94868.38
2018-07-16T09:01:08.781Z,94860.58
2018-07-16T09:03:37.578Z,94871.29
2018-07-16T09:06:06.976Z,94876.95
2018-07-16T09:08:36.674Z,94878.19
2018-07-16T09:11:06.961Z,94879.73
2018-07-16T09:13:35.826Z,94871.42
2018-07-16T09:16:04.992Z,94878.30
2018-07-16T09:18:33.793Z,94881.02
2018-07-16T09:21:02.963Z,94877.86
2018-07-16T09:23:32.282Z,94874.75
2018-07-16T09:26:01.478Z,94875.38
2018-07-16T09:28:30.486Z,94861.37
2018-07-16T09:30:59.734Z,94878.55
2018-07-16T09:33:28.689Z,94881.83
2018-07-16T09:35:57.820Z,94879.98
2018-07-16T09:38:27.065Z,94875.13
2018-07-16T09:40:56.353Z,94874.61
2018-07-16T09:43:25.316Z,94872.28
2018-07-16T09:45:54.552Z,94879.50
2018-07-16T09:48:23.303Z,94879.61
2018-07-16T09:50:52.199Z,94879.61
2018-07-16T09:53:20.988Z,94872.90
2018-07-16T09:55:49.937Z,94870.68
2018-07-16T09:58:20.359Z,94867.10
2018-07-16T10:00:54.541Z,94853.00
2018-07-16T10:05:51.845Z,94862.58
2018-07-16T10:08:20.765Z,94849.70
2018-07-16T10:10:49.625Z,94851.55
2018-07-16T10:13:18.545Z,94847.47
2018-07-16T10:15:47.820Z,94833.87
2018-07-16T10:18:16.609Z,94839.24
2018-07-16T10:20:45.576Z,94827.89
2018-07-16T10:23:14.954Z,94833.77
2018-07-16T10:25:43.923Z,94827.42
2018-07-16T10:28:12.902Z,94824.67
2018-07-16T10:30:41.710Z,94824.80
2018-07-16T10:33:10.593Z,94829.84
2018-07-16T10:35:39.759Z,94823.85
2018-07-16T10:38:08.701Z,94830.76
2018-07-16T10:40:37.673Z,94822.03
2018-07-16T10:43:06.667Z,94838.50
2018-07-16T10:45:35.569Z,94831.34
2018-07-16T10:48:04.599Z,94831.88
2018-07-16T10:50:33.546Z,94837.03
2018-07-16T10:53:02.490Z,94840.02
2018-07-16T10:55:31.520Z,94831.36
2018-07-16T10:58:01.607Z,94827.27
2018-07-16T11:00:30.579Z,94831.34
2018-07-16T11:02:59.617Z,94837.66
2018-07-16T11:05:28.504Z,94838.73
2018-07-16T11:07:57.448Z,94832.76
2018-07-16T11:10:26.414Z,94837.30
2018-07-16T11:12:55.275Z,94826.76
2018-07-16T11:15:24.526Z,94834.52
2018-07-16T11:17:53.350Z,94832.03
2018-07-16T11:20:22.377Z,94825.80
2018-07-16T11:22:51.769Z,94817.97
2018-07-16T11:25:20.782Z,94822.58
2018-07-16T11:27:49.691Z,94821.47
2018-07-16T11:30:18.910Z,94813.78
2018-07-16T11:32:47.833Z,94808.30
2018-07-16T11:35:16.695Z,94804.72
2018-07-16T11:37:45.492Z,94798.58
2018-07-16T11:40:14.539Z,94803.60
2018-07-16T11:42:44.258Z,94800.17
2018-07-16T11:45:13.479Z,94806.22
2018-07-16T11:47:42.255Z,94800.25
2018-07-16T11:50:11.373Z,94799.25
2018-07-16T11:52:40.725Z,94799.70
2018-07-16T11:55:09.543Z,94794.47
2018-07-16T11:57:38.650Z,94788.73
2018-07-16T12:00:07.743Z,94794.52
2018-07-16T12:02:36.737Z,94783.27
2018-07-16T12:05:05.740Z,94796.74
2018-07-16T12:07:34.639Z,94789.28
2018-07-16T12:10:03.546Z,94803.11
2018-07-16T12:12:32.872Z,94802.78
2018-07-16T12:15:01.709Z,94799.45
2018-07-16T12:17:30.469Z,94795.52
2018-07-16T12:19:59.704Z,94808.09
2018-07-16T12:22:28.832Z,94807.47
2018-07-16T12:24:57.551Z,94798.04
2018-07-16T12:27:26.294Z,94796.84
2018-07-16T12:29:55.258Z,94805.02
2018-07-16T12:32:24.277Z,94789.07
2018-07-16T12:34:53.229Z,94796.46
2018-07-16T12:37:22.179Z,94789.28
2018-07-16T12:39:50.906Z,94785.32
2018-07-16T12:42:20.976Z,94786.08
2018-07-16T12:44:49.856Z,94783.64
2018-07-16T12:47:18.612Z,94772.42
2018-07-16T12:49:47.720Z,94783.30
2018-07-16T12:52:17.096Z,94775.02
2018-07-16T12:54:46.099Z,94782.38
2018-07-16T12:57:14.957Z,94776.09
2018-07-16T12:59:43.908Z,94769.98
2018-07-16T13:02:12.994Z,94772.05
2018-07-16T13:04:42.154Z,94758.66
2018-07-16T13:07:11.265Z,94753.03
2018-07-16T13:09:40.130Z,94758.09
2018-07-16T13:12:10.150Z,94756.84
2018-07-16T13:14:39.434Z,94765.56
2018-07-16T13:17:08.477Z,94754.45
2018-07-16T13:19:37.380Z,94763.24
2018-07-16T13:22:06.599Z,94753.89
2018-07-16T13:24:35.706Z,94755.06
2018-07-16T13:27:05.047Z,94756.98
2018-07-16T13:29:33.990Z,94758.47
2018-07-16T13:32:03.166Z,94762.72
2018-07-16T13:34:32.273Z,94757.95
2018-07-16T13:37:01.137Z,94754.47
2018-07-16T13:39:29.876Z,94756.70
2018-07-16T13:41:58.819Z,94757.48
2018-07-16T13:44:27.665Z,94752.92
2018-07-16T13:46:56.374Z,94749.20
2018-07-16T13:49:25.419Z,94744.61
2018-07-16T13:51:54.746Z,94738.19
2018-07-16T13:54:23.540Z,94745.03
2018-07-16T13:56:52.651Z,94748.16
2018-07-16T13:59:21.892Z,94742.92
2018-07-16T14:01:51.194Z,94739.58
2018-07-16T14:04:20.074Z,94745.02
2018-07-16T14:06:49.018Z,94731.16
2018-07-16T14:09:17.988Z,94732.85
2018-07-16T14:11:47.198Z,94736.66
2018-07-16T14:14:16.175Z,94730.73
2018-07-16T14:16:45.262Z,94739.14
2018-07-16T14:19:14.449Z,94730.06
2018-07-16T14:21:43.275Z,94730.19
2018-07-16T14:24:12.098Z,94727.91
2018-07-16T14:26:40.923Z,94727.59
2018-07-16T14:29:10.346Z,94724.44
2018-07-16T14:31:39.613Z,94715.16
2018-07-16T14:34:08.689Z,94725.49
2018-07-16T14:36:37.758Z,94727.72
2018-07-16T14:39:06.943Z,94720.73
2018-07-16T14:41:36.039Z,94721.84
2018-07-16T14:44:05.029Z,94714.98
2018-07-16T14:46:34.224Z,94707.39
2018-07-16T14:49:03.121Z,94714.33
2018-07-16T14:51:32.278Z,94699.32
2018-07-16T14:54:01.091Z,94711.47
2018-07-16T14:56:30.075Z,94704.98
2018-07-16T14:58:59.196Z,94707.84
2018-07-16T15:01:28.265Z,94702.46
2018-07-16T15:03:57.169Z,94697.27
2018-07-16T15:06:26.383Z,94705.03
2018-07-16T15:08:55.198Z,94699.09
2018-07-16T15:11:24.658Z,94702.94
2018-07-16T15:13:53.583Z,94697.39
2018-07-16T15:16:22.469Z,94696.11
2018-07-16T15:18:51.397Z,94693.34
2018-07-16T15:21:20.773Z,94685.99
2018-07-16T15:23:49.274Z,94671.75
2018-07-16T15:26:18.237Z,94673.30
2018-07-16T15:28:47.076Z,94659.36
2018-07-16T15:31:16.179Z,94668.52
2018-07-16T15:33:45.043Z,94661.84
2018-07-16T15:36:14.294Z,94661.68
2018-07-16T15:38:43.623Z,94666.44
2018-07-16T15:41:13.070Z,94665.45
2018-07-16T15:43:42.015Z,94676.47
2018-07-16T15:46:10.797Z,94679.99
2018-07-16T15:48:40.038Z,94676.02
2018-07-16T15:51:08.871Z,94682.02
2018-07-16T15:53:37.789Z,94677.61
2018-07-16T15:56:06.722Z,94673.01
2018-07-16T15:58:35.780Z,94674.76
2018-07-16T16:01:04.743Z,94668.95
2018-07-16T16:03:33.789Z,94672.93
2018-07-16T16:06:02.645Z,94667.98
2018-07-16T16:08:31.740Z,94665.17
2018-07-16T16:11:01.176Z,94675.23
2018-07-16T16:13:30.143Z,94675.50
2018-07-16T16:15:59.449Z,94678.53
2018-07-16T16:18:28.651Z,94685.31
2018-07-16T16:20:58.028Z,94688.00
2018-07-16T16:23:27.018Z,94684.88
2018-07-16T16:25:56.001Z,94682.00
2018-07-16T16:28:24.981Z,94688.39
2018-07-16T16:30:54.543Z,94694.05
2018-07-16T16:33:23.841Z,94683.75
2018-07-16T16:35:52.769Z,94688.05
2018-07-16T16:38:21.683Z,94684.45
2018-07-16T16:40:51.070Z,94700.88
2018-07-16T16:43:20.067Z,94716.31
2018-07-16T16:45:48.894Z,94717.86
2018-07-16T16:48:18.438Z,94713.55
2018-07-16T16:50:47.276Z,94706.50
2018-07-16T16:53:23.432Z,94705.48
2018-07-16T16:55:52.479Z,94707.43
2018-07-16T16:58:21.957Z,94633.44
2018-07-16T17:00:55.367Z,94701.86
2018-07-16T17:03:24.818Z,94703.09
2018-07-16T17:05:54.501Z,94704.89
2018-07-16T17:08:24.113Z,94713.20
2018-07-16T17:10:53.254Z,94708.62
2018-07-16T17:13:22.212Z,94710.97
2018-07-16T17:15:51.502Z,94706.74
2018-07-16T17:18:20.706Z,94707.05
2018-07-16T17:20:49.779Z,94711.66
2018-07-16T17:23:19.142Z,94708.47
2018-07-16T17:25:48.288Z,94706.84
2018-07-16T17:28:17.232Z,94704.32
2018-07-16T17:30:46.786Z,94703.25
2018-07-16T17:33:15.673Z,94709.31
2018-07-16T17:35:44.616Z,94709.63
2018-07-16T17:38:13.770Z,94704.52
2018-07-16T17:40:42.889Z,94695.34
2018-07-16T17:43:11.742Z,94699.78
2018-07-16T17:45:41.366Z,94698.45
2018-07-16T17:48:10.633Z,94702.05
2018-07-16T17:50:39.460Z,94699.93
2018-07-16T17:53:08.770Z,94701.58
2018-07-16T17:55:37.991Z,94704.86
2018-07-16T17:58:07.080Z,94714.38
2018-07-16T18:00:36.379Z,94716.00
2018-07-16T18:03:05.635Z,94715.02
2018-07-16T18:05:34.634Z,94704.48
2018-07-16T18:08:03.859Z,94709.41
2018-07-16T18:10:32.938Z,94709.34
2018-07-16T18:13:02.022Z,94702.41
2018-07-16T18:15:31.655Z,94695.98
2018-07-16T18:18:00.655Z,94693.52
2018-07-16T18:20:29.818Z,94687.58
2018-07-16T18:22:59.279Z,94687.70
2018-07-16T18:25:28.143Z,94685.61
2018-07-16T18:27:57.109Z,94682.84
2018-07-16T18:30:26.263Z,94693.50
2018-07-16T18:32:54.963Z,94696.46
2018-07-16T18:35:24.208Z,94693.68
2018-07-16T18:37:53.330Z,94695.20
2018-07-16T18:40:22.410Z,94702.36
2018-07-16T18:42:51.408Z,94703.08
2018-07-16T18:45:20.782Z,94703.25
2018-07-16T18:47:49.801Z,94707.20
2018-07-16T18:50:18.789Z,94703.25
2018-07-16T18:52:47.992Z,94711.47
2018-07-16T18:55:17.040Z,94705.93
2018-07-16T18:57:46.294Z,94709.67
2018-07-16T19:00:15.729Z,94705.63
2018-07-16T19:02:44.475Z,94702.77
2018-07-16T19:05:13.481Z,94705.84
2018-07-16T19:07:42.870Z,94699.90
2018-07-16T19:10:11.855Z,94691.95
2018-07-16T19:12:41.059Z,94688.05
2018-07-16T19:15:15.317Z,94693.92
2018-07-16T19:17:44.570Z,94693.13
2018-07-16T19:20:13.784Z,94694.45
2018-07-16T19:22:42.899Z,94702.20
2018-07-16T19:25:11.989Z,94698.13
2018-07-16T19:27:40.826Z,94696.22
2018-07-16T19:30:10.203Z,94689.61
2018-07-16T19:32:39.375Z,94692.03
2018-07-16T19:35:08.460Z,94689.70
2018-07-16T19:37:38.046Z,94689.41
2018-07-16T19:40:08.109Z,94682.92
2018-07-16T19:42:37.471Z,94689.17
2018-07-16T19:45:07.240Z,94690.83
2018-07-16T19:47:36.060Z,94692.03
2018-07-16T19:50:05.815Z,94690.10
2018-07-16T19:52:35.032Z,94688.42
2018-07-16T19:55:04.009Z,94687.86
2018-07-16T19:57:33.399Z,94682.62
2018-07-16T20:00:02.580Z,94687.97
2018-07-16T20:02:31.789Z,94691.08
2018-07-16T20:05:00.671Z,94689.48
2018-07-16T20:07:29.713Z,94683.91
2018-07-16T20:09:58.478Z,94689.69
2018-07-16T20:12:31.275Z,94688.82
2018-07-16T20:15:00.989Z,94694.60
2018-07-16T20:17:29.858Z,94689.35
2018-07-16T20:19:59.548Z,94676.03
2018-07-16T20:22:28.929Z,94673.03
2018-07-16T20:24:58.331Z,94672.62
2018-07-16T20:27:27.364Z,94664.09
2018-07-16T20:29:56.314Z,94667.21
2018-07-16T20:32:25.408Z,94661.86
2018-07-16T20:34:54.352Z,94665.77
2018-07-16T20:37:23.095Z,94657.87
2018-07-16T20:39:52.272Z,94655.09
2018-07-16T20:42:21.629Z,94646.19
2018-07-16T20:44:50.768Z,94649.67
2018-07-16T20:47:19.659Z,94651.88
2018-07-16T20:49:49.264Z,94658.23
2018-07-16T20:52:18.069Z,94651.50
2018-07-16T20:54:47.016Z,94647.24
2018-07-16T20:57:16.247Z,94647.91
2018-07-16T20:59:45.097Z,94644.83
2018-07-16T21:04:48.753Z,94638.73
2018-07-16T21:07:17.434Z,94643.98
2018-07-16T21:09:46.344Z,94644.20
2018-07-16T21:12:15.744Z,94642.86
2018-07-16T21:14:44.676Z,94644.64
2018-07-16T21:17:13.557Z,94644.41
2018-07-16T21:19:43.647Z,94650.44
2018-07-16T21:22:12.724Z,94650.64
2018-07-16T21:24:41.915Z,94646.64
2018-07-16T21:27:11.881Z,94648.87
2018-07-16T21:29:40.730Z,94644.66
2018-07-16T21:32:11.076Z,94644.21
2018-07-16T21:34:40.346Z,94635.09
2018-07-16T21:37:09.479Z,94640.20
2018-07-16T21:39:39.558Z,94641.52
2018-07-16T21:42:09.293Z,94640.51
2018-07-16T21:44:38.392Z,94640.13
2018-07-16T21:47:07.370Z,94636.04
2018-07-16T21:49:36.266Z,94632.36
2018-07-16T21:52:05.235Z,94628.79
2018-07-16T21:54:34.393Z,94622.31
2018-07-16T21:57:03.405Z,94630.98
2018-07-16T21:59:32.727Z,94633.65
2018-07-16T22:02:01.569Z,94638.89
2018-07-16T22:04:30.485Z,94640.01
2018-07-16T22:06:59.519Z,94638.62
2018-07-16T22:09:28.697Z,94638.53
2018-07-16T22:11:58.140Z,94640.20
2018-07-16T22:14:27.219Z,94641.14
2018-07-16T22:16:56.169Z,94632.00
2018-07-16T22:19:25.352Z,94640.27
2018-07-16T22:21:54.316Z,94635.18
2018-07-16T22:24:23.532Z,94646.66
2018-07-16T22:26:52.494Z,94651.33
2018-07-16T22:29:21.510Z,94643.63
2018-07-16T22:31:50.496Z,94638.02
2018-07-16T22:34:19.696Z,94644.84
2018-07-16T22:36:48.518Z,94641.39
2018-07-16T22:39:17.319Z,94636.93
2018-07-16T22:41:46.189Z,94637.52
2018-07-16T22:44:15.134Z,94634.06
2018-07-16T22:46:43.947Z,94639.19
2018-07-16T22:49:13.060Z,94628.45
2018-07-16T22:51:42.036Z,94629.58
2018-07-16T22:54:11.010Z,94635.56
2018-07-16T22:56:40.356Z,94633.69
2018-07-16T22:59:09.233Z,94627.03
2018-07-16T23:01:38.186Z,94627.69
2018-07-16T23:04:07.120Z,94626.12
2018-07-16T23:06:36.017Z,94623.73
2018-07-16T23:09:05.866Z,94615.09
2018-07-16T23:11:35.229Z,94616.88
2018-07-16T23:14:04.412Z,94620.01
2018-07-16T23:16:33.318Z,94628.53
2018-07-16T23:19:02.550Z,94625.12
2018-07-16T23:21:31.338Z,94626.20
2018-07-16T23:24:00.293Z,94618.76
2018-07-16T23:26:29.421Z,94607.11
2018-07-16T23:28:58.523Z,94606.23
2018-07-16T23:31:27.408Z,94607.75
2018-07-16T23:33:56.615Z,94594.86
2018-07-16T23:36:25.357Z,94600.55
2018-07-16T23:38:54.345Z,94604.77
2018-07-16T23:41:24.102Z,94611.15
2018-07-16T23:43:53.088Z,94604.86
2018-07-16T23:46:21.954Z,94605.65
2018-07-16T23:48:52.084Z,94606.04
2018-07-16T23:51:21.157Z,94612.23
2018-07-16T23:53:50.387Z,94611.36
2018-07-16T23:56:19.390Z,94615.80
2018-07-16T23:58:48.363Z,94612.00
